createdAt,value
2018-07-03T00:00:06.496Z,0.00
2018-07-03T00:01:06.678Z,0.00
2018-07-03T00:02:06.466Z,0.00
2018-07-03T00:03:07.052Z,0.00
2018-07-03T00:04:06.426Z,0.00
2018-07-03T00:05:06.409Z,0.00
2018-07-03T00:06:06.395Z,0.00
2018-07-03T00:07:48.900Z,0.00
2018-07-03T00:08:48.883Z,0.00
2018-07-03T00:09:48.865Z,0.00
2018-07-03T00:12:23.919Z,0.00
2018-07-03T00:13:23.902Z,0.00
2018-07-03T00:15:34.072Z,0.00
2018-07-03T00:16:31.432Z,0.00
2018-07-03T00:17:31.419Z,0.00
2018-07-03T00:18:31.403Z,0.00
2018-07-03T00:19:31.384Z,0.00
2018-07-03T00:20:31.365Z,0.00
2018-07-03T00:21:31.348Z,0.00
2018-07-03T00:22:31.330Z,0.00
2018-07-03T00:23:31.310Z,0.00
2018-07-03T00:24:31.296Z,0.00
2018-07-03T00:25:31.280Z,0.00
2018-07-03T00:26:31.262Z,0.00
2018-07-03T00:27:31.241Z,0.00
2018-07-03T00:28:31.236Z,0.00
2018-07-03T00:29:31.208Z,0.00
2018-07-03T00:30:31.196Z,0.00
2018-07-03T00:31:31.174Z,0.00
2018-07-03T00:32:31.154Z,0.00
2018-07-03T00:33:31.139Z,0.00
2018-07-03T00:34:31.121Z,0.00
2018-07-03T00:35:31.103Z,0.00
2018-07-03T00:36:31.098Z,0.00
2018-07-03T00:37:31.068Z,0.00
2018-07-03T00:38:31.053Z,0.00
2018-07-03T00:39:31.034Z,0.00
2018-07-03T00:40:31.021Z,0.00
2018-07-03T00:41:31.107Z,0.00
2018-07-03T00:42:30.979Z,0.00
2018-07-03T00:43:30.963Z,0.00
2018-07-03T00:44:30.946Z,0.00
2018-07-03T00:45:30.929Z,0.00
2018-07-03T00:46:30.910Z,0.00
2018-07-03T00:47:30.894Z,0.00
2018-07-03T00:48:30.875Z,0.00
2018-07-03T00:49:30.857Z,0.00
2018-07-03T00:50:30.840Z,0.00
2018-07-03T00:51:30.822Z,0.00
2018-07-03T00:52:30.804Z,0.00
2018-07-03T00:53:30.790Z,0.00
2018-07-03T00:54:30.769Z,0.00
2018-07-03T00:55:30.757Z,0.00
2018-07-03T00:56:30.732Z,0.00
2018-07-03T00:57:30.716Z,0.00
2018-07-03T00:58:30.697Z,0.00
2018-07-03T00:59:30.688Z,0.00
2018-07-03T01:00:30.707Z,0.00
2018-07-03T01:01:30.648Z,0.00
2018-07-03T01:02:30.626Z,0.00
2018-07-03T01:03:30.609Z,0.00
2018-07-03T01:04:30.594Z,0.00
2018-07-03T01:05:30.581Z,0.00
2018-07-03T01:06:30.564Z,0.00
2018-07-03T01:07:30.545Z,0.00
2018-07-03T01:08:30.524Z,0.00
2018-07-03T01:09:30.509Z,0.00
2018-07-03T01:10:30.486Z,0.00
2018-07-03T01:11:30.469Z,0.00
2018-07-03T01:12:30.451Z,0.00
2018-07-03T01:13:30.435Z,0.00
2018-07-03T01:14:30.418Z,0.00
2018-07-03T01:15:30.398Z,0.00
2018-07-03T01:16:30.386Z,0.00
2018-07-03T01:17:30.362Z,0.00
2018-07-03T01:18:30.342Z,0.00
2018-07-03T01:19:30.325Z,0.00
2018-07-03T01:20:30.310Z,0.00
2018-07-03T01:21:30.291Z,0.00
2018-07-03T01:22:30.275Z,0.00
2018-07-03T01:23:30.259Z,0.00
2018-07-03T01:24:30.234Z,0.00
2018-07-03T01:25:30.222Z,0.00
2018-07-03T01:26:30.202Z,0.00
2018-07-03T01:27:30.182Z,0.00
2018-07-03T01:28:30.164Z,0.00
2018-07-03T01:29:30.147Z,0.00
2018-07-03T01:30:30.132Z,0.00
2018-07-03T01:31:30.113Z,0.00
2018-07-03T01:32:30.095Z,0.00
2018-07-03T01:33:30.078Z,0.00
2018-07-03T01:34:30.059Z,0.00
2018-07-03T01:35:30.038Z,0.00
2018-07-03T01:36:30.023Z,0.00
2018-07-03T01:37:30.008Z,0.00
2018-07-03T01:38:29.983Z,0.00
2018-07-03T01:39:29.965Z,0.00
2018-07-03T01:40:29.952Z,0.00
2018-07-03T01:41:29.932Z,0.00
2018-07-03T01:42:29.912Z,0.00
2018-07-03T01:43:29.894Z,0.00
2018-07-03T01:44:29.877Z,0.00
2018-07-03T01:45:29.858Z,0.00
2018-07-03T01:46:29.840Z,0.00
2018-07-03T01:47:29.823Z,0.00
2018-07-03T01:48:29.803Z,0.00
2018-07-03T01:49:29.787Z,0.00
2018-07-03T01:50:29.766Z,0.00
2018-07-03T01:51:29.750Z,0.00
2018-07-03T01:52:29.733Z,0.00
2018-07-03T01:53:29.712Z,0.00
2018-07-03T01:54:29.694Z,0.00
2018-07-03T01:55:29.678Z,0.00
2018-07-03T01:56:29.660Z,0.00
2018-07-03T01:57:29.644Z,0.00
2018-07-03T01:58:29.621Z,0.00
2018-07-03T01:59:29.604Z,0.00
2018-07-03T02:00:29.587Z,0.00
2018-07-03T02:01:29.566Z,0.00
2018-07-03T02:02:29.550Z,0.00
2018-07-03T02:03:29.531Z,0.00
2018-07-03T02:04:29.515Z,0.00
2018-07-03T02:05:29.496Z,0.00
2018-07-03T02:06:29.476Z,0.00
2018-07-03T02:07:29.460Z,0.00
2018-07-03T02:08:29.444Z,4.00
2018-07-03T02:09:29.428Z,4.00
2018-07-03T02:10:29.405Z,4.00
2018-07-03T02:11:29.387Z,4.00
2018-07-03T02:12:29.371Z,0.00
2018-07-03T02:13:29.348Z,0.00
2018-07-03T02:14:29.329Z,4.00
2018-07-03T02:15:29.321Z,4.00
2018-07-03T02:16:29.294Z,4.00
2018-07-03T02:17:29.275Z,4.00
2018-07-03T02:18:29.258Z,4.00
2018-07-03T02:19:29.240Z,4.00
2018-07-03T02:20:29.225Z,8.00
2018-07-03T02:21:29.207Z,4.00
2018-07-03T02:22:29.192Z,8.00
2018-07-03T02:23:29.171Z,8.00
2018-07-03T02:24:29.151Z,8.00
2018-07-03T02:25:29.137Z,8.00
2018-07-03T02:26:29.111Z,12.00
2018-07-03T02:27:29.093Z,12.00
2018-07-03T02:28:29.075Z,12.00
2018-07-03T02:29:29.055Z,16.00
2018-07-03T02:30:29.036Z,16.00
2018-07-03T02:31:29.023Z,20.00
2018-07-03T02:32:29.001Z,20.00
2018-07-03T02:33:28.982Z,24.00
2018-07-03T02:34:28.963Z,28.00
2018-07-03T02:35:28.954Z,28.00
2018-07-03T02:36:28.925Z,32.00
2018-07-03T02:37:28.909Z,36.00
2018-07-03T02:38:28.888Z,40.00
2018-07-03T02:39:28.873Z,44.00
2018-07-03T02:40:28.856Z,48.00
2018-07-03T02:41:28.836Z,52.00
2018-07-03T02:42:28.821Z,56.00
2018-07-03T02:43:28.795Z,60.00
2018-07-03T02:44:28.778Z,68.00
2018-07-03T02:45:28.762Z,72.00
2018-07-03T02:46:28.739Z,80.00
2018-07-03T02:47:28.722Z,84.00
2018-07-03T02:48:28.704Z,92.00
2018-07-03T02:49:28.688Z,96.00
2018-07-03T02:50:28.680Z,104.00
2018-07-03T02:51:28.650Z,112.00
2018-07-03T02:52:28.631Z,120.00
2018-07-03T02:53:28.612Z,128.00
2018-07-03T02:54:28.597Z,136.00
2018-07-03T02:55:28.576Z,144.00
2018-07-03T02:56:28.555Z,156.00
2018-07-03T02:57:28.539Z,164.00
2018-07-03T02:58:28.516Z,172.00
2018-07-03T02:59:28.503Z,180.00
2018-07-03T03:00:28.488Z,192.00
2018-07-03T03:01:28.461Z,200.00
2018-07-03T03:02:28.442Z,208.00
2018-07-03T03:03:28.426Z,220.00
2018-07-03T03:04:28.508Z,228.00
2018-07-03T03:05:28.388Z,236.00
2018-07-03T03:06:28.372Z,248.00
2018-07-03T03:07:28.350Z,256.00
2018-07-03T03:08:28.336Z,268.00
2018-07-03T03:09:28.363Z,276.00
2018-07-03T03:10:28.299Z,288.00
2018-07-03T03:11:28.281Z,296.00
2018-07-03T03:12:28.257Z,308.00
2018-07-03T03:13:28.238Z,316.00
2018-07-03T03:14:28.222Z,332.00
2018-07-03T03:15:28.201Z,340.00
2018-07-03T03:16:28.183Z,352.00
2018-07-03T03:17:28.162Z,356.00
2018-07-03T03:18:28.150Z,368.00
2018-07-03T03:19:28.126Z,376.00
2018-07-03T03:20:28.112Z,388.00
2018-07-03T03:21:28.092Z,396.00
2018-07-03T03:22:28.080Z,408.00
2018-07-03T03:23:28.052Z,416.00
2018-07-03T03:24:28.032Z,428.00
2018-07-03T03:25:28.017Z,436.00
2018-07-03T03:26:28.003Z,452.00
2018-07-03T03:27:27.983Z,464.00
2018-07-03T03:28:27.956Z,476.00
2018-07-03T03:29:27.936Z,488.00
2018-07-03T03:30:27.918Z,496.00
2018-07-03T03:31:27.902Z,508.00
2018-07-03T03:32:27.885Z,520.00
2018-07-03T03:33:27.864Z,532.00
2018-07-03T03:34:27.843Z,540.00
2018-07-03T03:35:27.826Z,552.00
2018-07-03T03:36:27.807Z,560.00
2018-07-03T03:37:27.787Z,572.00
2018-07-03T03:38:27.768Z,580.00
2018-07-03T03:39:27.748Z,588.00
2018-07-03T03:40:27.734Z,596.00
2018-07-03T03:41:27.713Z,604.00
2018-07-03T03:42:27.691Z,612.00
2018-07-03T03:43:27.674Z,624.00
2018-07-03T03:44:27.656Z,628.00
2018-07-03T03:45:27.637Z,636.00
2018-07-03T03:46:27.617Z,644.00
2018-07-03T03:47:27.598Z,648.00
2018-07-03T03:48:27.581Z,660.00
2018-07-03T03:49:27.562Z,664.00
2018-07-03T03:50:27.542Z,676.00
2018-07-03T03:51:27.523Z,680.00
2018-07-03T03:52:27.506Z,688.00
2018-07-03T03:53:27.490Z,696.00
2018-07-03T03:54:27.467Z,700.00
2018-07-03T03:55:27.448Z,708.00
2018-07-03T03:56:27.429Z,712.00
2018-07-03T03:57:27.410Z,720.00
2018-07-03T03:58:27.391Z,724.00
2018-07-03T03:59:27.373Z,732.00
2018-07-03T04:00:27.356Z,740.00
2018-07-03T04:01:27.337Z,744.00
2018-07-03T04:02:27.319Z,752.00
2018-07-03T04:03:27.300Z,756.00
2018-07-03T04:04:27.281Z,764.00
2018-07-03T04:05:27.260Z,772.00
2018-07-03T04:06:27.247Z,776.00
2018-07-03T04:07:27.222Z,780.00
2018-07-03T04:08:27.208Z,784.00
2018-07-03T04:09:27.184Z,792.00
2018-07-03T04:10:27.167Z,796.00
2018-07-03T04:11:27.148Z,800.00
2018-07-03T04:12:27.130Z,808.00
2018-07-03T04:13:27.115Z,816.00
2018-07-03T04:14:27.090Z,816.00
2018-07-03T04:15:27.074Z,824.00
2018-07-03T04:16:27.054Z,828.00
2018-07-03T04:17:27.040Z,832.00
2018-07-03T04:18:27.016Z,840.00
2018-07-03T04:19:26.999Z,844.00
2018-07-03T04:20:26.979Z,848.00
2018-07-03T04:21:26.963Z,856.00
2018-07-03T04:22:26.941Z,860.00
2018-07-03T04:23:26.923Z,860.00
2018-07-03T04:24:26.908Z,868.00
2018-07-03T04:25:26.887Z,872.00
2018-07-03T04:26:26.870Z,876.00
2018-07-03T04:27:26.852Z,884.00
2018-07-03T04:28:26.830Z,888.00
2018-07-03T04:29:26.815Z,892.00
2018-07-03T04:30:26.794Z,896.00
2018-07-03T04:31:26.775Z,900.00
2018-07-03T04:32:26.763Z,908.00
2018-07-03T04:33:26.739Z,912.00
2018-07-03T04:34:26.722Z,916.00
2018-07-03T04:35:26.703Z,920.00
2018-07-03T04:36:26.685Z,924.00
2018-07-03T04:37:26.676Z,928.00
2018-07-03T04:38:26.650Z,936.00
2018-07-03T04:39:26.629Z,940.00
2018-07-03T04:40:26.622Z,944.00
2018-07-03T04:41:26.636Z,948.00
2018-07-03T04:42:26.575Z,948.00
2018-07-03T04:43:26.556Z,952.00
2018-07-03T04:44:26.541Z,956.00
2018-07-03T04:45:26.522Z,964.00
2018-07-03T04:46:26.516Z,968.00
2018-07-03T04:47:26.504Z,972.00
2018-07-03T04:48:26.466Z,976.00
2018-07-03T04:49:26.451Z,980.00
2018-07-03T04:50:26.434Z,988.00
2018-07-03T04:51:26.415Z,996.00
2018-07-03T04:52:26.395Z,996.00
2018-07-03T04:53:26.433Z,1000.00
2018-07-03T04:54:26.360Z,1008.00
2018-07-03T04:55:26.342Z,1012.00
2018-07-03T04:56:26.325Z,1012.00
2018-07-03T04:57:26.305Z,1016.00
2018-07-03T04:58:26.287Z,1024.00
2018-07-03T04:59:26.270Z,1032.00
2018-07-03T05:00:26.256Z,1032.00
2018-07-03T05:01:26.235Z,1040.00
2018-07-03T05:02:26.220Z,1040.00
2018-07-03T05:03:26.200Z,1048.00
2018-07-03T05:04:26.185Z,1052.00
2018-07-03T05:05:26.165Z,1056.00
2018-07-03T05:06:26.147Z,1060.00
2018-07-03T05:07:26.131Z,1064.00
2018-07-03T05:08:26.110Z,1064.00
2018-07-03T05:09:26.093Z,1076.00
2018-07-03T05:10:26.075Z,1076.00
2018-07-03T05:11:26.061Z,1080.00
2018-07-03T05:12:26.040Z,1088.00
2018-07-03T05:13:26.023Z,1092.00
2018-07-03T05:14:26.005Z,1096.00
2018-07-03T05:15:25.987Z,1100.00
2018-07-03T05:16:25.970Z,1104.00
2018-07-03T05:17:25.971Z,1108.00
2018-07-03T05:18:25.960Z,1112.00
2018-07-03T05:19:25.916Z,1120.00
2018-07-03T05:20:25.902Z,1120.00
2018-07-03T05:21:25.882Z,1124.00
2018-07-03T05:22:25.869Z,1132.00
2018-07-03T05:23:25.848Z,1136.00
2018-07-03T05:24:25.832Z,1140.00
2018-07-03T05:25:25.814Z,1144.00
2018-07-03T05:26:25.798Z,1152.00
2018-07-03T05:27:25.779Z,1152.00
2018-07-03T05:28:25.767Z,1160.00
2018-07-03T05:29:25.747Z,1164.00
2018-07-03T05:30:25.731Z,1168.00
2018-07-03T05:31:25.728Z,1176.00
2018-07-03T05:32:25.696Z,1176.00
2018-07-03T05:33:25.683Z,1188.00
2018-07-03T05:34:25.659Z,1192.00
2018-07-03T05:35:25.643Z,1200.00
2018-07-03T05:36:25.629Z,1208.00
2018-07-03T05:37:25.611Z,1212.00
2018-07-03T05:38:25.594Z,1220.00
2018-07-03T05:39:25.590Z,1224.00
2018-07-03T05:40:25.561Z,1224.00
2018-07-03T05:41:25.541Z,1228.00
2018-07-03T05:42:25.529Z,1232.00
2018-07-03T05:43:25.510Z,1236.00
2018-07-03T05:44:25.492Z,1240.00
2018-07-03T05:46:15.856Z,1244.00
2018-07-03T05:47:07.983Z,1256.00
2018-07-03T05:50:33.754Z,1268.00
2018-07-03T05:51:33.742Z,1276.00
2018-07-03T05:52:33.726Z,1280.00
2018-07-03T05:53:33.708Z,1284.00
2018-07-03T05:54:33.687Z,1292.00
2018-07-03T05:55:33.688Z,1300.00
2018-07-03T05:56:33.712Z,1304.00
2018-07-03T05:57:33.640Z,1312.00
2018-07-03T05:58:33.625Z,1312.00
2018-07-03T05:59:33.605Z,1324.00
2018-07-03T06:00:33.590Z,1328.00
2018-07-03T06:01:33.574Z,1332.00
2018-07-03T06:02:33.560Z,1336.00
2018-07-03T06:03:33.540Z,1344.00
2018-07-03T06:04:33.528Z,1352.00
2018-07-03T06:05:33.507Z,1360.00
2018-07-03T06:06:33.491Z,1364.00
2018-07-03T06:07:33.475Z,1372.00
2018-07-03T06:08:33.471Z,1376.00
2018-07-03T06:09:33.447Z,1388.00
2018-07-03T06:10:33.430Z,1388.00
2018-07-03T06:11:33.580Z,1400.00
2018-07-03T06:12:33.396Z,1404.00
2018-07-03T06:13:33.378Z,1412.00
2018-07-03T06:14:33.361Z,1424.00
2018-07-03T06:15:33.346Z,1428.00
2018-07-03T06:16:33.329Z,1432.00
2018-07-03T06:17:33.315Z,1444.00
2018-07-03T06:18:33.295Z,1452.00
2018-07-03T06:19:33.282Z,1456.00
2018-07-03T06:20:33.271Z,1460.00
2018-07-03T06:21:33.249Z,1472.00
2018-07-03T06:22:33.232Z,1472.00
2018-07-03T06:23:33.220Z,1480.00
2018-07-03T06:24:33.201Z,1484.00
2018-07-03T06:25:33.184Z,1492.00
2018-07-03T06:26:33.175Z,1500.00
2018-07-03T06:27:33.285Z,1512.00
2018-07-03T06:28:33.136Z,1524.00
2018-07-03T06:29:33.125Z,1532.00
2018-07-03T06:30:33.103Z,1536.00
2018-07-03T06:31:33.090Z,1544.00
2018-07-03T06:32:33.074Z,1548.00
2018-07-03T06:33:33.057Z,1556.00
2018-07-03T06:34:33.043Z,1564.00
2018-07-03T06:35:33.028Z,1568.00
2018-07-03T06:36:33.012Z,1576.00
2018-07-03T06:37:33.059Z,1592.00
2018-07-03T06:38:32.984Z,1596.00
2018-07-03T06:39:32.966Z,1612.00
2018-07-03T06:40:32.952Z,1620.00
2018-07-03T06:41:32.938Z,1624.00
2018-07-03T06:42:32.918Z,1628.00
2018-07-03T06:43:32.904Z,1636.00
2018-07-03T06:44:32.891Z,1644.00
2018-07-03T06:45:32.876Z,1648.00
2018-07-03T06:46:32.860Z,1656.00
2018-07-03T06:47:33.012Z,1668.00
2018-07-03T06:48:32.829Z,1680.00
2018-07-03T06:49:32.815Z,1684.00
2018-07-03T06:50:32.796Z,1688.00
2018-07-03T06:51:32.916Z,1700.00
2018-07-03T06:52:32.767Z,1712.00
2018-07-03T06:53:32.751Z,1724.00
2018-07-03T06:54:32.738Z,1732.00
2018-07-03T06:55:32.722Z,1752.00
2018-07-03T06:56:32.707Z,1764.00
2018-07-03T06:57:32.693Z,1768.00
2018-07-03T06:58:32.678Z,1776.00
2018-07-03T06:59:32.665Z,1792.00
2018-07-03T07:00:32.649Z,1808.00
2018-07-03T07:01:32.633Z,1820.00
2018-07-03T07:02:32.629Z,1832.00
2018-07-03T07:03:32.600Z,1844.00
2018-07-03T07:04:32.588Z,1856.00
2018-07-03T07:05:32.573Z,1868.00
2018-07-03T07:06:32.560Z,1888.00
2018-07-03T07:07:32.544Z,1900.00
2018-07-03T07:08:32.541Z,1916.00
2018-07-03T07:09:32.539Z,1936.00
2018-07-03T07:10:32.499Z,1952.00
2018-07-03T07:11:32.486Z,1964.00
2018-07-03T07:12:32.473Z,1984.00
2018-07-03T07:13:32.459Z,2000.00
2018-07-03T07:14:32.443Z,2020.00
2018-07-03T07:15:32.429Z,2032.00
2018-07-03T07:16:32.416Z,2044.00
2018-07-03T07:17:32.402Z,2064.00
2018-07-03T07:18:32.386Z,2088.00
2018-07-03T07:19:32.372Z,2112.00
2018-07-03T07:20:32.360Z,2140.00
2018-07-03T07:21:32.343Z,2168.00
2018-07-03T07:22:32.329Z,2188.00
2018-07-03T07:23:32.321Z,2204.00
2018-07-03T07:24:32.308Z,2232.00
2018-07-03T07:25:32.289Z,2252.00
2018-07-03T07:26:32.273Z,2280.00
2018-07-03T07:27:32.264Z,2304.00
2018-07-03T07:28:32.248Z,2328.00
2018-07-03T07:29:32.242Z,2344.00
2018-07-03T07:30:32.223Z,2364.00
2018-07-03T07:31:32.216Z,2380.00
2018-07-03T07:32:32.191Z,2388.00
2018-07-03T07:34:54.795Z,2424.00
2018-07-03T07:37:12.351Z,2456.00
2018-07-03T07:38:12.338Z,2468.00
2018-07-03T07:39:12.331Z,2492.00
2018-07-03T07:40:12.318Z,2500.00
2018-07-03T07:41:12.299Z,2516.00
2018-07-03T07:42:12.287Z,2548.00
2018-07-03T07:43:12.273Z,2568.00
2018-07-03T07:44:12.261Z,2596.00
2018-07-03T07:45:12.252Z,2616.00
2018-07-03T07:46:12.234Z,2636.00
2018-07-03T07:47:12.224Z,2664.00
2018-07-03T07:48:12.210Z,2692.00
2018-07-03T07:49:12.194Z,2712.00
2018-07-03T07:50:12.181Z,2728.00
2018-07-03T07:51:54.709Z,2776.00
2018-07-03T07:52:54.686Z,2800.00
2018-07-03T07:53:54.679Z,2832.00
2018-07-03T07:54:54.712Z,2876.00
2018-07-03T07:55:54.657Z,2920.00
2018-07-03T07:56:54.639Z,2964.00
2018-07-03T07:57:54.625Z,3012.00
2018-07-03T07:58:54.619Z,3068.00
2018-07-03T07:59:54.628Z,3124.00
2018-07-03T08:00:54.589Z,3184.00
2018-07-03T08:01:54.580Z,3252.00
2018-07-03T08:02:54.571Z,3308.00
2018-07-03T08:03:54.552Z,3380.00
2018-07-03T08:04:54.541Z,3436.00
2018-07-03T08:05:54.530Z,3520.00
2018-07-03T08:06:54.521Z,3588.00
2018-07-03T08:07:54.509Z,3676.00
2018-07-03T08:08:54.503Z,3808.00
2018-07-03T08:09:54.484Z,4068.00
2018-07-03T08:10:54.471Z,4356.00
2018-07-03T08:11:54.463Z,4712.00
2018-07-03T08:12:54.459Z,14148.00
2018-07-03T08:13:54.438Z,33184.00
2018-07-03T08:14:54.430Z,57920.00
2018-07-03T08:15:54.417Z,81696.00
2018-07-03T08:16:54.405Z,88608.00
2018-07-03T08:17:54.402Z,84576.00
2018-07-03T08:18:54.382Z,78976.00
2018-07-03T08:19:54.372Z,77344.00
2018-07-03T08:20:54.364Z,80864.00
2018-07-03T08:21:54.356Z,87648.00
2018-07-03T08:22:54.350Z,90272.00
2018-07-03T08:23:54.337Z,89920.00
2018-07-03T08:24:54.335Z,88736.00
2018-07-03T08:25:54.348Z,85120.00
2018-07-03T08:26:54.320Z,83648.00
2018-07-03T08:27:54.313Z,83808.00
2018-07-03T08:28:54.302Z,84800.00
2018-07-03T08:29:54.296Z,83200.00
2018-07-03T08:30:54.291Z,84320.00
2018-07-03T08:31:54.289Z,87424.00
2018-07-03T08:32:54.279Z,90688.00
2018-07-03T08:33:54.277Z,89248.00
2018-07-03T08:34:54.268Z,86848.00
2018-07-03T08:35:54.267Z,89952.00
2018-07-03T08:36:54.261Z,94880.00
2018-07-03T08:37:54.353Z,95904.00
2018-07-03T08:38:54.254Z,97568.00
2018-07-03T08:39:54.251Z,96352.00
2018-07-03T08:40:54.246Z,94912.00
2018-07-03T08:41:54.244Z,89184.00
2018-07-03T08:42:54.273Z,82816.00
2018-07-03T08:43:54.235Z,78880.00
2018-07-03T08:44:54.235Z,83424.00
2018-07-03T08:45:54.235Z,90112.00
2018-07-03T08:46:54.225Z,91424.00
2018-07-03T08:47:54.225Z,88256.00
2018-07-03T08:48:54.248Z,90560.00
2018-07-03T08:49:54.220Z,95136.00
2018-07-03T08:50:54.213Z,97056.00
2018-07-03T08:51:54.222Z,98752.00
2018-07-03T08:52:54.215Z,99520.00
2018-07-03T08:53:54.206Z,99104.00
2018-07-03T08:54:54.207Z,94464.00
2018-07-03T08:55:54.203Z,93280.00
2018-07-03T08:56:54.203Z,95168.00
2018-07-03T08:57:54.199Z,96832.00
2018-07-03T08:58:54.199Z,96704.00
2018-07-03T08:59:54.199Z,96160.00
2018-07-03T09:00:54.200Z,98240.00
2018-07-03T09:01:54.194Z,102240.00
2018-07-03T09:02:54.192Z,103904.00
2018-07-03T09:03:54.279Z,102400.00
2018-07-03T09:04:54.190Z,99232.00
2018-07-03T09:05:54.191Z,98528.00
2018-07-03T09:06:54.187Z,101408.00
2018-07-03T09:07:54.187Z,100832.00
2018-07-03T09:08:54.186Z,99968.00
2018-07-03T09:09:54.188Z,97664.00
2018-07-03T09:10:54.185Z,99456.00
2018-07-03T09:11:54.185Z,103584.00
2018-07-03T09:12:54.181Z,102816.00
2018-07-03T09:13:54.183Z,100928.00
2018-07-03T09:14:54.179Z,102240.00
2018-07-03T09:15:54.182Z,104800.00
2018-07-03T09:16:54.178Z,108704.00
2018-07-03T09:17:54.245Z,108416.00
2018-07-03T09:18:54.180Z,104480.00
2018-07-03T09:19:54.184Z,99584.00
2018-07-03T09:20:54.179Z,100096.00
2018-07-03T09:21:54.184Z,102080.00
2018-07-03T09:22:54.176Z,98880.00
2018-07-03T09:23:54.175Z,85536.00
2018-07-03T09:24:54.180Z,69248.00
2018-07-03T09:25:54.180Z,52064.00
2018-07-03T09:26:54.174Z,34976.00
2018-07-03T09:27:54.174Z,21248.00
2018-07-03T09:28:54.176Z,12928.00
2018-07-03T09:29:54.172Z,3672.00
2018-07-03T09:30:54.223Z,3748.00
2018-07-03T09:31:54.174Z,3704.00
2018-07-03T09:32:54.171Z,3716.00
2018-07-03T09:33:54.172Z,3740.00
2018-07-03T09:34:54.169Z,3756.00
2018-07-03T09:35:54.174Z,3740.00
2018-07-03T09:36:54.167Z,3760.00
2018-07-03T09:37:54.168Z,3756.00
2018-07-03T09:38:54.164Z,3764.00
2018-07-03T09:39:54.166Z,3764.00
2018-07-03T09:40:54.163Z,3764.00
2018-07-03T09:41:54.163Z,3820.00
2018-07-03T09:42:54.158Z,3828.00
2018-07-03T09:43:54.156Z,3836.00
2018-07-03T09:44:54.152Z,3844.00
2018-07-03T09:45:54.158Z,3852.00
2018-07-03T09:46:54.153Z,3844.00
2018-07-03T09:47:54.150Z,3856.00
2018-07-03T09:48:54.166Z,3876.00
2018-07-03T09:49:54.142Z,3888.00
2018-07-03T09:50:54.157Z,3912.00
2018-07-03T09:51:54.136Z,3936.00
2018-07-03T09:52:54.184Z,3952.00
2018-07-03T09:53:54.134Z,3944.00
2018-07-03T09:54:54.146Z,3960.00
2018-07-03T09:55:54.175Z,3952.00
2018-07-03T09:56:54.124Z,3960.00
2018-07-03T09:57:54.121Z,3988.00
2018-07-03T09:58:54.117Z,2004.00
2018-07-03T09:59:54.112Z,4060.00
2018-07-03T10:00:54.110Z,4116.00
2018-07-03T10:01:54.106Z,4588.00
2018-07-03T10:02:54.102Z,4736.00
2018-07-03T10:03:54.095Z,4736.00
2018-07-03T10:04:54.098Z,4564.00
2018-07-03T10:05:54.090Z,4376.00
2018-07-03T10:06:54.087Z,4444.00
2018-07-03T10:07:54.083Z,2612.00
2018-07-03T10:08:54.079Z,4568.00
2018-07-03T10:09:54.074Z,3800.00
2018-07-03T10:10:54.070Z,3844.00
2018-07-03T10:11:54.077Z,4408.00
2018-07-03T10:12:54.098Z,4272.00
2018-07-03T10:13:54.060Z,4256.00
2018-07-03T10:14:54.051Z,4284.00
2018-07-03T10:15:54.049Z,4304.00
2018-07-03T10:16:54.048Z,4296.00
2018-07-03T10:17:54.042Z,4352.00
2018-07-03T10:18:54.073Z,4348.00
2018-07-03T10:19:54.030Z,4372.00
2018-07-03T10:20:54.027Z,4404.00
2018-07-03T10:21:54.022Z,4368.00
2018-07-03T10:22:54.017Z,4348.00
2018-07-03T10:23:54.013Z,4360.00
2018-07-03T10:24:54.009Z,4388.00
2018-07-03T10:25:54.003Z,4412.00
2018-07-03T10:26:54.005Z,4472.00
2018-07-03T10:27:54.010Z,4540.00
2018-07-03T10:28:53.987Z,4552.00
2018-07-03T10:29:53.982Z,4572.00
2018-07-03T10:30:53.976Z,4568.00
2018-07-03T10:31:53.972Z,4516.00
2018-07-03T10:32:53.967Z,4512.00
2018-07-03T10:33:53.965Z,4508.00
2018-07-03T10:34:53.959Z,4536.00
2018-07-03T10:35:53.953Z,4520.00
2018-07-03T10:36:53.950Z,4520.00
2018-07-03T10:37:53.942Z,4532.00
2018-07-03T10:38:53.945Z,4580.00
2018-07-03T10:39:53.930Z,4616.00
2018-07-03T10:40:53.926Z,4604.00
2018-07-03T10:41:53.921Z,4644.00
2018-07-03T10:42:53.923Z,4672.00
2018-07-03T10:43:53.908Z,4728.00
2018-07-03T10:44:53.906Z,4720.00
2018-07-03T10:45:53.939Z,4724.00
2018-07-03T10:46:53.894Z,4740.00
2018-07-03T10:47:53.888Z,4752.00
2018-07-03T10:48:53.906Z,4772.00
2018-07-03T10:49:53.880Z,4772.00
2018-07-03T10:50:53.874Z,4800.00
2018-07-03T10:51:53.865Z,4644.00
2018-07-03T10:52:53.860Z,4632.00
2018-07-03T10:53:53.858Z,4628.00
2018-07-03T10:54:53.852Z,4604.00
2018-07-03T10:55:53.845Z,4616.00
2018-07-03T10:56:53.838Z,4648.00
2018-07-03T10:57:53.834Z,4680.00
2018-07-03T10:58:53.826Z,4648.00
2018-07-03T10:59:53.822Z,4692.00
2018-07-03T11:00:53.818Z,4732.00
2018-07-03T11:01:53.821Z,4668.00
2018-07-03T11:02:53.805Z,4648.00
2018-07-03T11:03:53.798Z,4692.00
2018-07-03T11:04:53.796Z,4672.00
2018-07-03T11:05:53.798Z,4720.00
2018-07-03T11:06:53.784Z,4736.00
2018-07-03T11:07:53.785Z,4804.00
2018-07-03T11:08:53.772Z,4748.00
2018-07-03T11:09:53.766Z,4676.00
2018-07-03T11:10:53.761Z,4684.00
2018-07-03T11:11:53.757Z,4696.00
2018-07-03T11:12:53.751Z,4732.00
2018-07-03T11:13:53.816Z,4732.00
2018-07-03T11:14:53.747Z,4724.00
2018-07-03T11:15:53.731Z,4720.00
2018-07-03T11:16:53.728Z,4724.00
2018-07-03T11:17:53.722Z,4776.00
2018-07-03T11:18:53.719Z,4840.00
2018-07-03T11:19:53.843Z,4880.00
2018-07-03T11:20:53.703Z,4872.00
2018-07-03T11:21:53.698Z,5072.00
2018-07-03T11:22:53.691Z,5140.00
2018-07-03T11:23:53.686Z,5248.00
2018-07-03T11:24:53.726Z,5204.00
2018-07-03T11:25:53.681Z,5196.00
2018-07-03T11:26:53.671Z,5328.00
2018-07-03T11:27:53.663Z,5136.00
2018-07-03T11:28:53.686Z,4940.00
2018-07-03T11:29:53.654Z,4980.00
2018-07-03T11:30:53.647Z,4996.00
2018-07-03T11:31:53.643Z,5024.00
2018-07-03T11:32:53.637Z,5036.00
2018-07-03T11:33:53.631Z,5000.00
2018-07-03T11:34:53.626Z,4988.00
2018-07-03T11:35:53.625Z,5020.00
2018-07-03T11:36:53.613Z,5052.00
2018-07-03T11:37:53.607Z,5072.00
2018-07-03T11:38:53.609Z,5068.00
2018-07-03T11:39:53.596Z,5096.00
2018-07-03T11:40:53.590Z,5120.00
2018-07-03T11:41:53.586Z,5120.00
2018-07-03T11:42:53.615Z,5172.00
2018-07-03T11:43:53.575Z,5180.00
2018-07-03T11:44:53.594Z,5208.00
2018-07-03T11:45:53.568Z,5248.00
2018-07-03T11:46:53.590Z,5304.00
2018-07-03T11:47:53.556Z,5320.00
2018-07-03T11:48:53.556Z,5356.00
2018-07-03T11:49:53.540Z,5428.00
2018-07-03T11:50:53.536Z,5544.00
2018-07-03T11:51:53.529Z,5644.00
2018-07-03T11:52:53.523Z,5760.00
2018-07-03T11:53:53.520Z,5920.00
2018-07-03T11:54:53.517Z,6088.00
2018-07-03T11:55:53.511Z,6228.00
2018-07-03T11:56:53.502Z,6548.00
2018-07-03T11:57:53.493Z,6788.00
2018-07-03T11:58:53.489Z,7020.00
2018-07-03T11:59:53.482Z,7292.00
2018-07-03T12:00:53.480Z,7568.00
2018-07-03T12:01:53.479Z,7888.00
2018-07-03T12:02:53.467Z,8256.00
2018-07-03T12:03:53.462Z,8648.00
2018-07-03T12:04:53.457Z,9156.00
2018-07-03T12:05:53.455Z,17920.00
2018-07-03T12:06:53.456Z,99680.00
2018-07-03T12:07:53.450Z,103904.00
2018-07-03T12:08:53.441Z,112608.00
2018-07-03T12:09:53.430Z,105056.00
2018-07-03T12:10:53.426Z,90016.00
2018-07-03T12:11:53.423Z,94592.00
2018-07-03T12:12:53.419Z,87072.00
2018-07-03T12:13:53.418Z,37472.00
2018-07-03T12:14:53.409Z,21760.00
2018-07-03T12:15:53.405Z,9788.00
2018-07-03T12:16:53.403Z,9748.00
2018-07-03T12:17:53.397Z,9916.00
2018-07-03T12:18:53.396Z,27296.00
2018-07-03T12:19:53.459Z,83456.00
2018-07-03T12:20:53.388Z,106752.00
2018-07-03T12:21:53.398Z,98400.00
2018-07-03T12:22:53.383Z,101760.00
2018-07-03T12:23:53.376Z,107040.00
2018-07-03T12:24:53.373Z,64704.00
2018-07-03T12:25:53.370Z,12496.00
2018-07-03T12:26:53.368Z,8316.00
2018-07-03T12:27:53.376Z,8140.00
2018-07-03T12:28:53.383Z,7908.00
2018-07-03T12:29:53.360Z,7776.00